Time;durP1;ratioP1;P1;durP2;ratioP2;P2;SDS_P1;SDS_P2;PMS_P1;PMS_P2;Temp;Humidity;BMP_temperature;BMP_pressure;BME280_temperature;BME280_humidity;BME280_pressure;Samples;Min_cycle;Max_cycle;Signal;HPM_P1;HPM_P2
2023/10/25 00:00:30;;;;;;;9.85;3.60;;;;;;;;;;4919339;29;20483;-72
2023/10/25 00:02:57;;;;;;;8.43;3.50;;;;;;;;;;4916846;29;20032;-72
2023/10/25 00:05:23;;;;;;;10.55;3.63;;;;;;;;;;4878345;29;20047;-73
2023/10/25 00:07:49;;;;;;;12.77;3.17;;;;;;;;;;4919169;29;20234;-72
2023/10/25 00:10:15;;;;;;;15.20;3.58;;;;;;;;;;4893628;29;20040;-72
2023/10/25 00:12:41;;;;;;;8.93;3.10;;;;;;;;;;4919183;29;20040;-72
2023/10/25 00:15:07;;;;;;;7.97;3.42;;;;;;;;;;4918948;29;20370;-72
2023/10/25 00:17:33;;;;;;;8.48;3.40;;;;;;;;;;4918702;29;20095;-72
2023/10/25 00:19:59;;;;;;;8.57;3.53;;;;;;;;;;4919262;29;20067;-71
2023/10/25 00:22:26;;;;;;;7.82;3.20;;;;;;;;;;4918832;29;20154;-71
2023/10/25 00:24:52;;;;;;;8.27;3.08;;;;;;;;;;4892266;29;20047;-72
2023/10/25 00:27:18;;;;;;;7.63;2.78;;;;;;;;;;4918780;29;20574;-71
2023/10/25 00:29:44;;;;;;;12.38;3.05;;;;;;;;;;4918664;29;20039;-73
2023/10/25 00:32:14;;;;;;;11.02;3.25;;;;;;;;;;4918443;29;20050;-72
2023/10/25 00:34:40;;;;;;;7.85;2.58;;;;;;;;;;4918529;29;20043;-73
2023/10/25 00:37:06;;;;;;;8.65;2.55;;;;;;;;;;4918457;29;20036;-72
2023/10/25 00:39:33;;;;;;;10.38;2.63;;;;;;;;;;4935235;29;20067;-72
2023/10/25 00:41:59;;;;;;;8.48;2.88;;;;;;;;;;4918295;29;20060;-72
2023/10/25 00:44:25;;;;;;;6.53;2.25;;;;;;;;;;4918277;29;20051;-72
2023/10/25 00:46:51;;;;;;;7.55;2.17;;;;;;;;;;4902727;29;20043;-72
2023/10/25 00:49:17;;;;;;;9.45;2.83;;;;;;;;;;4918366;29;20052;-72
2023/10/25 00:51:44;;;;;;;10.50;3.80;;;;;;;;;;4902965;29;20098;-72
2023/10/25 00:54:10;;;;;;;5.63;2.67;;;;;;;;;;4918016;29;20082;-72
2023/10/25 00:56:37;;;;;;;9.95;2.72;;;10.50;99.90;;;;;;4918724;29;20078;-72
2023/10/25 00:59:04;;;;;;;9.52;2.67;;;;;;;;;;4902107;29;20054;-72
2023/10/25 01:01:30;;;;;;;8.65;2.35;;;;;;;;;;4918167;29;20091;-72
2023/10/25 01:03:56;;;;;;;8.40;2.42;;;;;;;;;;4917826;29;20047;-72
2023/10/25 01:06:23;;;;;;;6.65;2.47;;;;;;;;;;4918505;29;20446;-72
2023/10/25 01:08:50;;;;;;;2.47;2.17;;;;;;;;;;4918299;29;20102;-72
2023/10/25 01:11:16;;;;;;;5.75;2.95;;;;;;;;;;4915849;29;20144;-73
2023/10/25 01:13:42;;;;;;;8.85;2.22;;;;;;;;;;4918299;29;20444;-72
2023/10/25 01:16:08;;;;;;;7.45;3.15;;;;;;;;;;4917906;29;20043;-72
2023/10/25 01:18:34;;;;;;;7.65;2.63;;;;;;;;;;4918090;29;20411;-72
2023/10/25 01:21:00;;;;;;;5.38;2.17;;;;;;;;;;4914777;29;20082;-72
2023/10/25 01:23:26;;;;;;;5.18;2.72;;;;;;;;;;4917418;29;20044;-72
2023/10/25 01:25:52;;;;;;;8.45;2.17;;;;;;;;;;4918050;29;20044;-72
2023/10/25 01:28:18;;;;;;;5.15;2.17;;;;;;;;;;4871974;29;20043;-72
2023/10/25 01:30:45;;;;;;;9.48;2.60;;;;;;;;;;4917632;29;20043;-72
2023/10/25 01:33:11;;;;;;;8.10;2.55;;;;;;;;;;4917774;29;20191;-72
2023/10/25 01:35:37;;;;;;;7.07;2.20;;;;;;;;;;4901636;29;20050;-69
2023/10/25 01:38:04;;;;;;;8.15;2.50;;;;;;;;;;4916995;29;20046;-69
2023/10/25 01:40:30;;;;;;;8.13;2.63;;;;;;;;;;4917398;29;20161;-68
2023/10/25 01:42:56;;;;;;;11.48;4.40;;;;;;;;;;4896152;29;20047;-69
2023/10/25 01:45:27;;;;;;;6.32;3.25;;;;;;;;;;4917485;29;20412;-69
2023/10/25 01:47:53;;;;;;;5.28;2.47;;;;;;;;;;4917247;29;20043;-69
2023/10/25 01:50:19;;;;;;;8.80;3.65;;;;;;;;;;4916712;29;20046;-69
2023/10/25 01:52:46;;;;;;;8.65;2.55;;;;;;;;;;4917371;29;20039;-69
2023/10/25 01:55:12;;;;;;;6.75;2.65;;;;;;;;;;4917397;29;20044;-69
2023/10/25 01:57:38;;;;;;;8.80;2.67;;;;;;;;;;4917078;29;20047;-69
2023/10/25 02:00:06;;;;;;;8.63;3.13;;;;;;;;;;4917460;29;20119;-69
2023/10/25 02:02:33;;;;;;;8.07;3.25;;;;;;;;;;4917508;29;20068;-69
2023/10/25 02:04:59;;;;;;;4.88;2.80;;;;;;;;;;4901358;29;20079;-69
2023/10/25 02:07:25;;;;;;;4.95;3.00;;;;;;;;;;4914908;29;20083;-69
2023/10/25 02:09:51;;;;;;;10.27;3.25;;;;;;;;;;4917225;29;20099;-69
2023/10/25 02:12:18;;;;;;;8.57;3.47;;;;;;;;;;4881008;29;20040;-69
2023/10/25 02:14:44;;;;;;;4.70;3.10;;;;;;;;;;4917271;29;20047;-69
2023/10/25 02:17:10;;;;;;;5.07;3.30;;;;;;;;;;4901242;29;20036;-69
2023/10/25 02:19:36;;;;;;;9.60;4.18;;;;;;;;;;4916992;29;20122;-69
2023/10/25 02:22:02;;;;;;;6.30;3.40;;;;;;;;;;4916622;29;20122;-69
2023/10/25 02:24:29;;;;;;;8.75;4.38;;;;;;;;;;4916887;29;20051;-69
2023/10/25 02:26:55;;;;;;;10.60;3.88;;;;;;;;;;4917182;29;20047;-69
2023/10/25 02:29:21;;;;;;;10.07;4.28;;;;;;;;;;4916992;29;20063;-69
2023/10/25 02:31:47;;;;;;;4.97;3.75;;;;;;;;;;4917386;29;20497;-69
2023/10/25 02:34:13;;;;;;;14.13;3.75;;;;;;;;;;4917156;29;20047;-69
2023/10/25 02:36:39;;;;;;;7.80;3.20;;;;;;;;;;4916602;29;20047;-69
2023/10/25 02:39:05;;;;;;;10.48;4.93;;;;;;;;;;4916952;29;20511;-69
2023/10/25 02:41:31;;;;;;;11.02;4.30;;;;;;;;;;4916667;29;20043;-69
2023/10/25 02:43:58;;;;;;;7.75;3.60;;;;;;;;;;4917043;29;20058;-69
2023/10/25 02:46:24;;;;;;;6.72;3.60;;;;;;;;;;4901144;29;20039;-69
2023/10/25 02:48:52;;;;;;;8.98;3.72;;;;;;;;;;4917237;29;20043;-69
2023/10/25 02:51:18;;;;;;;10.32;4.05;;;;;;;;;;4899809;29;20044;-69
2023/10/25 02:53:44;;;;;;;8.07;3.78;;;;;;;;;;4917178;29;20040;-69
2023/10/25 02:56:10;;;;;;;7.40;3.80;;;;;;;;;;4916642;29;20396;-69
2023/10/25 02:58:36;;;;;;;9.45;3.78;;;;;;;;;;4917082;29;20036;-69
2023/10/25 03:01:03;;;;;;;9.45;3.80;;;;;;;;;;4901340;29;20050;-69
2023/10/25 03:03:33;;;;;;;5.88;4.10;;;;;;;;;;4919701;29;20400;-68
2023/10/25 03:05:59;;;;;;;12.90;4.63;;;;;;;;;;4904741;29;20043;-69
2023/10/25 03:08:25;;;;;;;8.88;4.13;;;;;;;;;;4920023;29;20043;-69
2023/10/25 03:10:51;;;;;;;7.18;4.00;;;;;;;;;;4920592;29;20043;-69
2023/10/25 03:13:18;;;;;;;6.65;4.20;;;;;;;;;;4904038;29;20503;-69
2023/10/25 03:15:44;;;;;;;11.60;3.78;;;;;;;;;;4917926;29;20527;-69
2023/10/25 03:18:11;;;;;;;7.35;4.40;;;;;;;;;;4919847;29;20031;-69
2023/10/25 03:20:37;;;;;;;9.80;4.00;;;;;;;;;;4919658;29;20526;-69
2023/10/25 03:23:03;;;;;;;12.80;4.38;;;;;;;;;;4919716;29;20173;-69
2023/10/25 03:25:29;;;;;;;9.85;4.28;;;;;;;;;;4917347;29;20036;-69
2023/10/25 03:27:55;;;;;;;8.40;5.07;;;;;;;;;;4919360;29;20159;-70
2023/10/25 03:30:21;;;;;;;8.48;4.75;;;;;;;;;;4919529;29;20417;-68
2023/10/25 03:32:47;;;;;;;10.10;5.10;;;;;;;;;;4919236;29;20043;-68
2023/10/25 03:35:14;;;;;;;9.02;4.55;;;;;;;;;;4919640;29;20034;-68
2023/10/25 03:37:40;;;;;;;9.48;5.20;;;;;;;;;;4919635;29;20051;-68
2023/10/25 03:40:10;;;;;;;8.63;5.18;;;;;;;;;;4919501;29;20456;-68
2023/10/25 03:42:37;;;;;;;7.82;4.72;;;;;;;;;;4903591;29;20059;-69
2023/10/25 03:45:06;;;;;;;11.38;5.20;;;;;;;;;;4917227;29;20061;-69
2023/10/25 03:47:34;;;;;;;11.15;5.15;;;;;;;;;;4919787;29;20035;-69
2023/10/25 03:50:01;;;;;;;11.57;5.45;;;;;;;;;;4903488;29;20040;-69
2023/10/25 03:52:27;;;;;;;7.68;5.03;;;;;;;;;;4903489;29;20046;-69
2023/10/25 03:54:53;;;;;;;13.32;5.68;;;;;;;;;;4903457;29;20057;-69
2023/10/25 03:57:19;;;;;;;9.05;5.60;;;;;;;;;;4919234;29;20504;-69
2023/10/25 03:59:45;;;;;;;8.73;5.35;;;;;;;;;;4903514;29;20126;-69
2023/10/25 04:02:11;;;;;;;11.98;6.07;;;;;;;;;;4919407;29;20047;-69
2023/10/25 04:04:38;;;;;;;10.18;5.95;;;;;;;;;;4919222;29;20139;-69
2023/10/25 04:07:04;;;;;;;10.15;5.97;;;;;;;;;;4918778;29;20054;-69
2023/10/25 04:09:30;;;;;;;14.35;5.85;;;;;;;;;;4919315;29;20051;-69
2023/10/25 04:11:56;;;;;;;13.20;6.32;;;;;;;;;;4918520;29;20039;-69
2023/10/25 04:14:22;;;;;;;15.38;6.72;;;;;;;;;;4918578;29;20039;-69
2023/10/25 04:16:48;;;;;;;13.55;6.60;;;;;;;;;;4918688;29;20080;-69
2023/10/25 04:19:14;;;;;;;9.75;6.32;;;;;;;;;;4917524;29;20142;-69
2023/10/25 04:21:41;;;;;;;10.52;7.03;;;;;;;;;;4918724;29;20073;-69
2023/10/25 04:24:07;;;;;;;9.88;6.57;;;;;;;;;;4918602;29;20098;-69
2023/10/25 04:26:33;;;;;;;16.40;7.55;;;;;;;;;;4918129;29;20099;-68
2023/10/25 04:28:59;;;;;;;13.32;6.82;;;;;;;;;;4917661;29;20044;-69
2023/10/25 04:31:26;;;;;;;10.57;6.63;;;;;;;;;;4916365;29;20048;-69
2023/10/25 04:33:52;;;;;;;15.63;7.10;;;;;;;;;;4902736;29;20047;-70
2023/10/25 04:36:18;;;;;;;11.13;7.40;;;;;;;;;;4918576;29;20065;-69
2023/10/25 04:38:46;;;;;;;11.52;7.20;;;;;;;;;;4918429;29;20115;-69
2023/10/25 04:41:12;;;;;;;11.68;7.25;;;;;;;;;;4918452;29;20054;-69
2023/10/25 04:43:38;;;;;;;14.45;7.90;;;;;;;;;;4918257;29;20152;-70
2023/10/25 04:46:04;;;;;;;10.20;6.90;;;;;;;;;;4919049;29;20138;-69
2023/10/25 04:48:30;;;;;;;15.25;7.90;;;;;;;;;;4920920;29;20070;-70
2023/10/25 04:50:56;;;;;;;15.10;7.28;;;;;;;;;;4923577;29;20052;-68
2023/10/25 04:53:22;;;;;;;13.80;8.00;;;;;;;;;;4922073;29;20047;-68
2023/10/25 04:55:48;;;;;;;13.40;8.07;;;;;;;;;;4923533;29;20052;-68
2023/10/25 04:58:15;;;;;;;13.80;7.95;;;;;;;;;;4927340;29;20434;-69
2023/10/25 05:00:41;;;;;;;18.42;9.10;;;;;;;;;;4926612;29;20085;-69
2023/10/25 05:03:11;;;;;;;14.50;8.52;;;;;;;;;;4911417;29;20040;-69
2023/10/25 05:05:38;;;;;;;13.00;8.00;;;;;;;;;;4910142;29;20079;-69
2023/10/25 05:08:04;;;;;;;12.57;8.27;;;;;;;;;;4927391;29;20106;-69
2023/10/25 05:10:30;;;;;;;16.25;8.77;;;;;;;;;;4925160;29;20130;-69
2023/10/25 05:12:57;;;;;;;15.05;8.80;;;;;;;;;;4929076;29;20044;-69
2023/10/25 05:15:25;;;;;;;15.38;8.88;;;;;;;;;;4920829;29;20043;-69
2023/10/25 05:17:51;;;;;;;18.48;9.43;;;;;;;;;;4903795;29;20043;-70
2023/10/25 05:20:17;;;;;;;13.40;9.15;;;;;;;;;;4927532;29;20052;-69
2023/10/25 05:22:48;;;;;;;16.02;9.10;;;;;;;;;;4919011;29;20048;-69
2023/10/25 05:25:14;;;;;;;14.55;9.00;;;;;;;;;;4917019;29;20032;-69
2023/10/25 05:27:40;;;;;;;15.23;9.73;;;;;;;;;;4917256;29;20081;-71
2023/10/25 05:30:09;;;;;;;14.90;9.55;;;;;;;;;;4917235;29;20075;-71
2023/10/25 05:32:36;;;;;;;17.35;9.80;;;;;;;;;;4901641;29;20767;-71
2023/10/25 05:35:03;;;;;;;16.17;9.45;;;;;;;;;;4917961;29;20047;-71
2023/10/25 05:37:29;;;;;;;13.00;9.20;;;;;;;;;;4915958;29;20036;-71
2023/10/25 05:39:55;;;;;;;15.70;9.65;;;;;;;;;;4917065;29;20040;-69
2023/10/25 05:42:23;;;;;;;15.23;9.40;;;;;;;;;;4917260;29;20477;-70
2023/10/25 05:44:56;;;;;;;15.80;9.80;;;;;;;;;;4917524;29;20088;-69
2023/10/25 05:47:22;;;;;;;;;;;;;;;;;;4904106;29;20066;-69
2023/10/25 05:49:49;;;;;;;14.70;9.02;;;;;;;;;;4916843;29;19971;-69
2023/10/25 05:52:15;;;;;;;13.75;8.82;;;;;;;;;;4919556;29;20059;-69
2023/10/25 05:54:41;;;;;;;18.35;9.05;;;;;;;;;;4924144;29;20043;-69
2023/10/25 05:57:08;;;;;;;15.10;9.43;;;;;;;;;;4919725;29;20075;-69
2023/10/25 05:59:34;;;;;;;14.57;9.77;;;;;;;;;;4916820;29;20039;-67
2023/10/25 06:02:01;;;;;;;14.07;8.93;;;;;;;;;;4917376;29;20130;-69
2023/10/25 06:04:30;;;;;;;15.10;9.40;;;;;;;;;;4896060;29;20047;-68
2023/10/25 06:06:56;;;;;;;13.07;9.27;;;8.10;99.90;;;;;;4916837;29;20047;-69
2023/10/25 06:09:22;;;;;;;12.25;8.75;;;;;;;;;;4916526;29;20047;-69
2023/10/25 06:11:48;;;;;;;15.48;9.57;;;;;;;;;;4916649;29;20050;-69
2023/10/25 06:14:15;;;;;;;12.75;8.63;;;;;;;;;;4901163;29;20043;-71
2023/10/25 06:16:41;;;;;;;12.93;8.90;;;;;;;;;;4915987;29;20063;-72
2023/10/25 06:19:07;;;;;;;14.52;8.65;;;;;;;;;;4894167;29;20505;-72
2023/10/25 06:21:33;;;;;;;16.75;9.88;;;;;;;;;;4900978;29;20046;-72
2023/10/25 06:23:59;;;;;;;12.48;8.30;;;;;;;;;;4898377;29;20048;-72
2023/10/25 06:26:25;;;;;;;15.55;9.13;;;;;;;;;;4916721;29;20062;-72
2023/10/25 06:28:51;;;;;;;16.15;8.20;;;;;;;;;;4899048;29;20516;-71
2023/10/25 06:31:17;;;;;;;14.73;8.50;;;;;;;;;;4913859;29;20539;-71
2023/10/25 06:33:43;;;;;;;13.05;7.88;;;;;;;;;;4918352;29;20048;-71
2023/10/25 06:36:10;;;;;;;17.77;9.40;;;;;;;;;;4902509;29;20095;-72
2023/10/25 06:38:36;;;;;;;13.63;8.82;;;;;;;;;;4921453;29;20488;-72
2023/10/25 06:41:03;;;;;;;14.75;8.40;;;;;;;;;;4922023;29;20050;-72
2023/10/25 06:43:32;;;;;;;13.38;8.40;;;;;;;;;;4921617;29;20551;-71
2023/10/25 06:45:58;;;;;;;9.95;7.00;;;9.80;99.90;;;;;;4921253;29;20103;-71
2023/10/25 06:48:27;;;;;;;13.77;7.88;;;8.20;99.90;;;;;;4937952;29;20406;-72
2023/10/25 06:50:54;;;;;;;14.35;8.00;;;;;;;;;;4906116;29;20051;-71
2023/10/25 06:53:21;;;;;;;15.10;7.50;;;;;;;;;;4921312;29;20036;-72
2023/10/25 06:55:47;;;;;;;10.27;7.68;;;;;;;;;;4906077;29;20048;-72
2023/10/25 06:58:13;;;;;;;14.95;8.32;;;;;;;;;;4920726;29;20031;-72
2023/10/25 07:00:39;;;;;;;14.93;7.28;;;;;;;;;;4937023;29;20040;-72
2023/10/25 07:03:09;;;;;;;17.35;7.47;;;;;;;;;;4919958;29;20039;-72
2023/10/25 07:05:36;;;;;;;16.05;7.10;;;;;;;;;;4927294;29;20216;-72
2023/10/25 07:08:02;;;;;;;12.73;7.28;;;;;;;;;;4921572;29;20044;-72
2023/10/25 07:10:28;;;;;;;10.50;6.90;;;8.90;99.90;;;;;;4920288;29;20055;-72
2023/10/25 07:12:54;;;;;;;17.30;7.85;;;;;;;;;;4925248;29;20052;-72
2023/10/25 07:15:22;;;;;;;12.43;7.25;;;;;;;;;;4909894;29;20114;-72
2023/10/25 07:17:49;;;;;;;10.50;7.10;;;;;;;;;;4904578;29;20075;-70
2023/10/25 07:20:16;;;;;;;11.90;7.05;;;;;;;;;;4906579;29;20106;-70
2023/10/25 07:22:42;;;;;;;8.32;6.57;;;;;;;;;;4921996;29;20555;-70
2023/10/25 07:25:09;;;;;;;11.07;6.60;;;;;;;;;;4922030;29;20032;-70
2023/10/25 07:27:37;;;;;;;17.23;7.82;;;;;;;;;;4917555;29;20472;-69
2023/10/25 07:30:04;;;;;;;22.13;7.05;;;;;;;;;;4923572;29;20055;-69
2023/10/25 07:32:31;;;;;;;12.15;7.40;;;;;;;;;;4921871;29;20048;-70
2023/10/25 07:34:57;;;;;;;12.23;6.95;;;;;;;;;;4900933;29;20138;-69
2023/10/25 07:37:24;;;;;;;11.18;6.68;;;;;;;;;;4920815;29;20043;-69
2023/10/25 07:39:50;;;;;;;13.52;7.68;;;;;;;;;;4929827;29;20039;-68
2023/10/25 07:42:16;;;;;;;15.38;8.15;;;;;;;;;;4920569;29;20090;-69
2023/10/25 07:44:42;;;;;;;11.60;7.10;;;;;;;;;;4936586;29;20047;-68
2023/10/25 07:47:08;;;;;;;11.38;6.93;;;;;;;;;;4915126;29;20043;-68
2023/10/25 07:49:37;;;;;;;10.52;6.70;;;;;;;;;;4904329;29;20079;-72
2023/10/25 07:52:04;;;;;;;15.88;6.60;;;;;;;;;;4920774;29;20082;-72
2023/10/25 07:54:30;;;;;;;14.45;6.72;;;;;;;;;;4908443;29;20051;-72
2023/10/25 07:56:56;;;;;;;11.95;6.25;;;;;;;;;;4936477;29;20122;-72
2023/10/25 07:59:22;;;;;;;16.65;6.63;;;;;;;;;;4920590;29;20048;-72
2023/10/25 08:01:49;;;;;;;12.40;6.22;;;;;;;;;;4920671;29;20055;-72
2023/10/25 08:04:15;;;;;;;11.55;6.40;;;;;;;;;;4920744;29;20047;-72
2023/10/25 08:06:43;;;;;;;13.45;6.97;;;;;;;;;;4920598;29;20503;-72
2023/10/25 08:09:09;;;;;;;7.53;5.60;;;;;;;;;;4920463;29;20094;-72
2023/10/25 08:11:37;;;;;;;9.95;5.93;;;;;;;;;;4920243;29;20516;-70
2023/10/25 08:14:03;;;;;;;13.75;6.30;;;;;;;;;;4904591;29;20155;-69
2023/10/25 08:16:30;;;;;;;10.18;6.07;;;;;;;;;;4904720;29;20043;-69
2023/10/25 08:18:56;;;;;;;11.95;5.68;;;;;;;;;;4929104;29;20039;-69
2023/10/25 08:21:22;;;;;;;7.93;6.10;;;;;;;;;;4937286;29;20035;-70
2023/10/25 08:23:51;;;;;;;12.70;6.00;;;;;;;;;;4920492;29;20048;-69
2023/10/25 08:26:21;;;;;;;9.88;5.03;;;8.90;99.90;;;;;;4920012;29;20043;-70
2023/10/25 08:28:48;;;;;;;11.10;5.95;;;;;;;;;;4920342;29;20114;-69
2023/10/25 08:31:16;;;;;;;9.40;5.82;;;;;;;;;;4919960;29;20229;-69
2023/10/25 08:33:42;;;;;;;9.90;5.55;;;;;;;;;;4920125;29;20051;-69
2023/10/25 08:36:09;;;;;;;9.05;5.57;;;;;;;;;;4920110;29;20044;-70
2023/10/25 08:38:35;;;;;;;11.18;6.28;;;;;;;;;;4919903;29;20539;-69
2023/10/25 08:41:05;;;;;;;6.90;5.47;;;9.30;99.90;;;;;;4919852;29;20461;-69
2023/10/25 08:43:35;;;;;;;10.27;5.97;;;9.30;99.90;;;;;;4919658;29;20063;-70
2023/10/25 08:46:03;;;;;;;7.75;5.30;;;9.10;99.90;;;;;;4903869;29;20043;-70
2023/10/25 08:48:29;;;;;;;13.32;6.00;;;;;;;;;;4919855;29;20052;-69
2023/10/25 08:50:56;;;;;;;13.90;6.38;;;9.40;99.90;;;;;;4919642;29;20529;-69
2023/10/25 08:53:23;;;;;;;10.98;5.93;;;;;;;;;;4904297;29;20070;-71
2023/10/25 08:55:51;;;;;;;10.98;5.80;;;;;;;;;;4919482;29;20134;-71
2023/10/25 08:58:18;;;;;;;11.00;6.03;;;;;;;;;;4904086;29;20043;-71
2023/10/25 09:00:44;;;;;;;10.35;6.03;;;;;;;;;;4919405;29;20083;-71
2023/10/25 09:03:30;;;;;;;7.05;5.53;;;9.50;99.90;;;;;;4919498;29;20059;-71
2023/10/25 09:05:56;;;;;;;10.95;6.60;;;;;;;;;;4919232;29;20051;-71
2023/10/25 09:08:24;;;;;;;11.90;6.28;;;;;;;;;;4919584;29;20243;-71
2023/10/25 09:11:00;;;;;;;9.52;6.10;;;9.50;99.90;;;;;;4919341;29;20058;-71
2023/10/25 09:13:26;;;;;;;9.35;6.05;;;;;;;;;;4919283;29;20047;-72
2023/10/25 09:15:52;;;;;;;8.38;6.50;;;;;;;;;;4903421;29;20488;-72
2023/10/25 09:18:19;;;;;;;11.73;6.03;;;;;;;;;;4919013;29;20046;-72
2023/10/25 09:20:51;;;;;;;13.07;6.15;;;;;;;;;;4919097;29;20098;-72
2023/10/25 09:23:17;;;;;;;14.90;6.30;;;;;;;;;;4919111;29;20032;-72
2023/10/25 09:25:46;;;;;;;12.25;5.80;;;;;;;;;;4919252;29;20125;-72
2023/10/25 09:28:15;;;;;;;20.05;6.32;;;;;;;;;;4918886;29;20621;-72
2023/10/25 09:30:42;;;;;;;9.85;6.00;;;9.70;99.90;;;;;;4903030;29;20048;-72
2023/10/25 09:33:08;;;;;;;10.65;5.95;;;;;;;;;;4903217;29;20119;-72
2023/10/25 09:35:35;;;;;;;8.27;5.70;;;;;;;;;;4918088;29;20047;-72
2023/10/25 09:38:01;;;;;;;13.60;6.53;;;;;;;;;;4931634;29;20040;-71
2023/10/25 09:40:27;;;;;;;13.55;5.60;;;;;;;;;;4902726;29;20095;-71
2023/10/25 09:42:59;;;;;;;8.60;5.75;;;;;;;;;;4918599;29;20516;-71
2023/10/25 09:45:31;;;;;;;8.20;5.57;;;;;;;;;;4910638;29;20039;-71
2023/10/25 09:48:00;;;;;;;11.57;6.00;;;;;;;;;;4917320;29;20094;-71
2023/10/25 09:50:34;;;;;;;13.40;5.93;;;;;;;;;;4912334;29;20048;-71
2023/10/25 09:53:04;;;;;;;14.13;5.38;;;;;;;;;;4886706;29;20035;-71
2023/10/25 09:55:32;;;;;;;12.45;6.18;;;;;;;;;;4917345;29;20114;-71
2023/10/25 09:57:59;;;;;;;8.65;5.25;;;;;;;;;;4899326;29;20116;-71
2023/10/25 10:00:25;;;;;;;9.57;5.70;;;;;;;;;;4918783;29;20047;-71
2023/10/25 10:02:58;;;;;;;9.77;5.55;;;;;;;;;;4915006;29;20044;-71
2023/10/25 10:05:32;;;;;;;8.05;5.53;;;;;;;;;;4899991;29;20131;-71
2023/10/25 10:08:17;;;;;;;9.60;4.95;;;;;;;;;;4899725;29;20044;-71
2023/10/25 10:10:52;;;;;;;8.77;5.50;;;10.20;99.90;;;;;;4906951;29;20078;-72
2023/10/25 10:13:22;;;;;;;7.43;5.28;;;;;;;;;;4902639;29;20123;-72
2023/10/25 10:16:01;;;;;;;13.43;5.95;;;;;;;;;;4918025;29;20058;-72
2023/10/25 10:18:33;;;;;;;7.97;5.60;;;;;;;;;;4902951;29;20063;-71
2023/10/25 10:21:01;;;;;;;12.25;6.05;;;10.40;99.90;;;;;;4918217;29;20519;-71
2023/10/25 10:23:39;;;;;;;9.25;5.28;;;;;;;;;;4918405;29;20044;-70
2023/10/25 10:26:06;;;;;;;8.57;5.25;;;;;;;;;;4918690;29;20051;-68
2023/10/25 10:28:48;;;;;;;9.38;5.40;;;;;;;;;;4918253;29;20056;-68
2023/10/25 10:31:14;;;;;;;10.55;5.57;;;;;;;;;;4913677;29;20515;-68
2023/10/25 10:33:48;;;;;;;8.63;4.72;;;10.50;99.90;;;;;;4917480;29;20127;-68
2023/10/25 10:36:30;;;;;;;9.32;4.88;;;;;;;;;;4884096;29;20036;-68
2023/10/25 10:39:21;;;;;;;10.88;5.50;;;10.50;99.90;;;;;;4901658;29;20492;-68
2023/10/25 10:41:47;;;;;;;7.68;5.30;;;;;;;;;;4902570;29;20451;-68
2023/10/25 10:44:13;;;;;;;11.65;5.30;;;;;;;;;;4917857;29;20048;-69
2023/10/25 10:46:55;;;;;;;9.60;5.82;;;10.50;99.90;;;;;;4918541;29;20048;-70
2023/10/25 10:49:22;;;;;;;16.20;5.63;;;;;;;;;;4917787;29;20043;-71
2023/10/25 10:51:49;;;;;;;7.82;5.32;;;10.90;99.90;;;;;;4915567;29;20522;-71
2023/10/25 10:54:15;;;;;;;10.13;5.65;;;;;;;;;;4902446;29;20063;-71
2023/10/25 10:56:41;;;;;;;9.75;5.60;;;;;;;;;;4916697;29;20127;-71
2023/10/25 10:59:07;;;;;;;10.38;4.82;;;;;;;;;;4918907;29;20047;-71
2023/10/25 11:01:33;;;;;;;9.13;5.40;;;;;;;;;;4933623;29;20035;-71
2023/10/25 11:03:59;;;;;;;9.50;5.53;;;;;;;;;;4900523;29;20050;-71
2023/10/25 11:06:26;;;;;;;10.65;5.35;;;;;;;;;;4903997;29;20048;-71
2023/10/25 11:08:52;;;;;;;11.18;5.10;;;;;;;;;;4916884;29;20362;-71
2023/10/25 11:11:19;;;;;;;8.20;5.20;;;;;;;;;;4916580;29;20134;-71
2023/10/25 11:13:46;;;;;;;11.32;5.47;;;11.10;99.90;;;;;;4903567;29;20466;-71
2023/10/25 11:16:13;;;;;;;6.68;5.00;;;;;;;;;;4916500;29;20048;-71
2023/10/25 11:18:39;;;;;;;8.48;5.10;;;;;;;;;;4900902;29;20044;-71
2023/10/25 11:21:05;;;;;;;8.77;5.13;;;;;;;;;;4898497;29;20048;-71
2023/10/25 11:23:31;;;;;;;13.15;5.10;;;;;;;;;;4885587;29;20040;-71
2023/10/25 11:25:58;;;;;;;7.18;4.80;;;;;;;;;;4919982;29;20050;-71
2023/10/25 11:28:24;;;;;;;10.45;5.03;;;;;;;;;;4904216;29;20111;-71
2023/10/25 11:30:51;;;;;;;9.02;5.15;;;;;;;;;;4920106;29;20070;-71
2023/10/25 11:33:17;;;;;;;10.05;4.80;;;;;;;;;;4919653;29;20046;-71
2023/10/25 11:35:43;;;;;;;10.73;5.40;;;;;;;;;;4919486;29;20044;-71
2023/10/25 11:38:10;;;;;;;11.95;4.70;;;;;;;;;;4919137;29;20400;-71
2023/10/25 11:40:45;;;;;;;8.18;4.88;;;;;;;;;;4903866;29;20032;-71
2023/10/25 11:43:12;;;;;;;7.18;4.57;;;;;;;;;;4903724;29;20052;-68
2023/10/25 11:45:38;;;;;;;10.85;5.07;;;;;;;;;;4919882;29;20175;-68
2023/10/25 11:48:05;;;;;;;7.88;4.63;;;;;;;;;;4915278;29;20493;-68
2023/10/25 11:50:31;;;;;;;9.85;4.95;;;;;;;;;;4919619;29;20118;-68
2023/10/25 11:53:00;;;;;;;6.28;4.53;;;;;;;;;;4919563;29;20380;-68
2023/10/25 11:55:29;;;;;;;11.32;4.90;;;;;;;;;;4920863;29;20054;-68
2023/10/25 11:57:56;;;;;;;12.00;4.95;;;;;;;;;;4921369;29;20059;-68
2023/10/25 12:00:23;;;;;;;13.73;5.07;;;;;;;;;;4915159;29;20107;-69
2023/10/25 12:02:49;;;;;;;9.52;5.00;;;;;;;;;;4902989;29;20134;-70
2023/10/25 12:05:15;;;;;;;8.40;4.70;;;;;;;;;;4919063;29;20039;-70
2023/10/25 12:07:41;;;;;;;9.98;4.85;;;;;;;;;;4919876;29;20052;-70
2023/10/25 12:10:08;;;;;;;8.05;4.80;;;;;;;;;;4885457;29;20040;-71
2023/10/25 12:12:34;;;;;;;8.60;4.40;;;;;;;;;;4919421;29;20130;-70
2023/10/25 12:15:00;;;;;;;13.10;4.57;;;;;;;;;;4920957;29;20052;-70
2023/10/25 12:17:27;;;;;;;7.63;4.57;;;;;;;;;;4923771;29;20047;-70
2023/10/25 12:19:53;;;;;;;7.13;4.57;;;;;;;;;;4936626;29;20074;-71
2023/10/25 12:22:19;;;;;;;10.10;4.70;;;;;;;;;;4920497;29;20086;-71
2023/10/25 12:24:48;;;;;;;11.95;5.28;;;;;;;;;;4920467;29;20040;-72
2023/10/25 12:27:15;;;;;;;9.52;5.90;;;;;;;;;;4936210;29;20050;-72
2023/10/25 12:29:41;;;;;;;7.20;5.38;;;;;;;;;;4934930;29;20055;-72
2023/10/25 12:32:08;;;;;;;13.23;5.68;;;;;;;;;;4904697;29;20055;-71
2023/10/25 12:34:34;;;;;;;7.50;5.10;;;;;;;;;;4904240;29;20052;-71
2023/10/25 12:37:00;;;;;;;9.48;5.05;;;;;;;;;;4920098;29;20539;-72
2023/10/25 12:39:26;;;;;;;12.90;6.00;;;;;;;;;;4920418;29;20035;-72
2023/10/25 12:41:53;;;;;;;8.88;5.35;;;;;;;;;;4904225;29;20083;-72
2023/10/25 12:44:19;;;;;;;10.07;5.40;;;;;;;;;;4920091;29;20052;-70
2023/10/25 12:46:45;;;;;;;7.95;5.20;;;;;;;;;;4920101;29;20043;-70
2023/10/25 12:49:18;;;;;;;10.50;5.45;;;11.40;99.90;;;;;;4935725;29;20054;-70
2023/10/25 12:51:44;;;;;;;10.48;5.53;;;;;;;;;;4920140;29;20490;-70
2023/10/25 12:54:11;;;;;;;10.68;5.50;;;;;;;;;;4935899;29;20079;-70
2023/10/25 12:56:37;;;;;;;10.25;5.30;;;;;;;;;;4935454;29;20126;-70
2023/10/25 12:59:03;;;;;;;12.13;5.90;;;;;;;;;;4935809;29;20043;-70
2023/10/25 13:01:30;;;;;;;9.10;5.43;;;;;;;;;;4935744;29;20102;-70
2023/10/25 13:03:56;;;;;;;11.30;5.50;;;;;;;;;;4935471;29;20048;-70
2023/10/25 13:06:22;;;;;;;10.60;5.35;;;;;;;;;;4935498;29;20047;-70
2023/10/25 13:08:48;;;;;;;8.10;5.50;;;;;;;;;;4935464;29;20091;-71
2023/10/25 13:11:14;;;;;;;8.88;5.55;;;;;;;;;;4935413;29;20062;-71
2023/10/25 13:13:40;;;;;;;12.07;5.25;;;;;;;;;;4935004;29;20047;-72
2023/10/25 13:16:06;;;;;;;7.03;4.97;;;;;;;;;;4935071;29;20086;-71
2023/10/25 13:18:33;;;;;;;7.93;5.03;;;;;;;;;;4919351;29;20039;-71
2023/10/25 13:20:59;;;;;;;10.68;5.35;;;;;;;;;;4919469;29;20072;-71
2023/10/25 13:23:26;;;;;;;12.07;4.75;;;;;;;;;;4903859;29;20485;-71
2023/10/25 13:25:53;;;;;;;11.95;5.40;;;;;;;;;;4931058;29;20043;-72
2023/10/25 13:28:19;;;;;;;8.93;4.88;;;;;;;;;;4935228;29;20515;-72
2023/10/25 13:30:45;;;;;;;10.43;5.38;;;;;;;;;;4925348;29;20493;-72
2023/10/25 13:33:13;;;;;;;9.40;5.70;;;;;;;;;;4919133;29;20047;-72
2023/10/25 13:35:39;;;;;;;9.77;4.97;;;;;;;;;;4919414;29;20039;-72
2023/10/25 13:38:05;;;;;;;9.27;4.68;;;;;;;;;;4919132;29;20043;-72
2023/10/25 13:40:31;;;;;;;19.13;5.30;;;;;;;;;;4919359;29;20392;-72
2023/10/25 13:42:57;;;;;;;11.27;5.50;;;;;;;;;;4918870;29;20501;-72
2023/10/25 13:45:23;;;;;;;11.10;5.22;;;;;;;;;;4919047;29;20047;-72
2023/10/25 13:47:49;;;;;;;7.60;4.85;;;;;;;;;;4918271;29;20087;-70
2023/10/25 13:50:16;;;;;;;6.50;4.63;;;;;;;;;;4918981;29;20046;-70
2023/10/25 13:52:42;;;;;;;8.10;5.07;;;;;;;;;;4912323;29;20157;-70
2023/10/25 13:55:08;;;;;;;10.73;5.13;;;;;;;;;;4918906;29;20055;-70
2023/10/25 13:57:35;;;;;;;12.27;4.85;;;;;;;;;;4918887;29;20055;-70
2023/10/25 14:00:01;;;;;;;6.97;4.78;;;;;;;;;;4934885;29;20047;-70
2023/10/25 14:02:27;;;;;;;7.75;5.00;;;;;;;;;;4905249;29;20036;-70
2023/10/25 14:04:53;;;;;;;11.63;5.22;;;;;;;;;;4918654;29;20134;-70
2023/10/25 14:07:19;;;;;;;9.70;5.53;;;;;;;;;;4917035;29;20071;-70
2023/10/25 14:09:45;;;;;;;7.05;4.47;;;;;;;;;;4900543;29;20086;-70
2023/10/25 14:12:11;;;;;;;11.20;5.18;;;;;;;;;;4902177;29;20040;-70
2023/10/25 14:14:37;;;;;;;13.48;5.28;;;;;;;;;;4901832;29;20044;-70
2023/10/25 14:17:04;;;;;;;7.28;4.85;;;;;;;;;;4918283;29;20051;-71
2023/10/25 14:19:30;;;;;;;10.40;5.28;;;;;;;;;;4918500;29;20070;-70
2023/10/25 14:21:56;;;;;;;8.52;4.75;;;;;;;;;;4917266;29;20047;-70
2023/10/25 14:24:22;;;;;;;9.82;5.13;;;;;;;;;;4901702;29;20059;-70
2023/10/25 14:26:48;;;;;;;10.57;5.35;;;;;;;;;;4916961;29;20039;-71